Time;durP1;ratioP1;P1;durP2;ratioP2;P2;SDS_P1;SDS_P2;PMS_P1;PMS_P2;Temp;Humidity;BMP_temperature;BMP_pressure;BME280_temperature;BME280_humidity;BME280_pressure;Samples;Min_cycle;Max_cycle;Signal;HPM_P1;HPM_P2
2024/02/06 00:01:18;;;;;;;3.53;1.02;;;;;;;0.26;100.00;99821.38;5117251;28;20066;-68
2024/02/06 00:03:44;;;;;;;4.13;1.00;;;;;;;0.34;100.00;99825.91;5116946;28;20046;-68
2024/02/06 00:06:09;;;;;;;2.83;1.08;;;;;;;0.32;100.00;99828.69;5118576;28;20031;-69
2024/02/06 00:08:36;;;;;;;11.45;1.00;;;;;;;0.34;100.00;99818.78;5101024;28;20030;-69
2024/02/06 00:11:01;;;;;;;6.03;1.00;;;;;;;0.34;100.00;99824.09;5116815;28;20031;-69
2024/02/06 00:13:27;;;;;;;2.90;1.00;;;;;;;0.32;100.00;99820.75;5116745;28;20027;-69
2024/02/06 00:15:53;;;;;;;4.55;1.17;;;;;;;0.30;100.00;99814.81;5117270;28;20105;-69
2024/02/06 00:18:18;;;;;;;7.55;1.75;;;;;;;0.29;100.00;99813.13;5116956;28;20031;-68
2024/02/06 00:20:44;;;;;;;6.97;1.30;;;;;;;0.09;100.00;99777.31;5118126;28;20034;-69
2024/02/06 00:23:09;;;;;;;7.15;1.00;;;;;;;0.31;100.00;99815.63;5117476;28;20034;-69
2024/02/06 00:25:34;;;;;;;5.07;1.10;;;;;;;0.27;100.00;99809.81;5117003;28;20514;-69
2024/02/06 00:28:00;;;;;;;10.05;1.38;;;;;;;0.18;100.00;99797.53;5116881;28;20107;-69
2024/02/06 00:30:25;;;;;;;5.40;0.90;;;;;;;0.09;100.00;99774.66;5116814;28;20063;-68
2024/02/06 00:32:52;;;;;;;5.63;1.30;;;;;;;0.19;100.00;99796.53;5117243;28;20032;-68
2024/02/06 00:35:18;;;;;;;5.70;1.23;;;;;;;0.24;100.00;99804.84;5116395;28;20027;-68
2024/02/06 00:37:44;;;;;;;5.90;1.20;;;;;;;0.22;100.00;99791.75;5120094;28;20100;-69
2024/02/06 00:40:10;;;;;;;6.47;1.10;;;;;;;0.21;100.00;99792.75;5121430;28;20035;-69
2024/02/06 00:42:35;;;;;;;4.53;1.13;;;;;;;0.21;100.00;99784.00;5121277;28;20102;-68
2024/02/06 00:45:02;;;;;;;4.10;1.10;;;;;;;0.16;100.00;99775.69;5121456;28;20122;-69
2024/02/06 00:47:27;;;;;;;4.97;1.00;;;;;;;0.08;100.00;99757.97;5121680;28;20084;-69
2024/02/06 00:49:53;;;;;;;4.32;1.10;;;;;;;0.18;100.00;99779.00;5119902;28;20023;-68
2024/02/06 00:52:20;;;;;;;7.72;1.23;;;;;;;0.18;100.00;99771.06;5122720;28;20019;-71
2024/02/06 00:54:47;;;;;;;3.78;1.20;;;;;;;0.16;100.00;99775.69;5125425;28;20054;-69
2024/02/06 00:57:13;;;;;;;8.40;1.00;;;;;;;0.16;100.00;99773.88;5123759;28;20024;-69
2024/02/06 00:59:39;;;;;;;4.00;0.90;;;;;;;0.14;100.00;99767.91;5122802;28;20042;-69
2024/02/06 01:02:05;;;;;;;4.28;0.90;;;;;;;0.12;100.00;99759.31;5122151;28;20079;-69
2024/02/06 01:04:31;;;;;;;5.32;0.90;;;;;;;0.09;100.00;99758.78;5103497;28;20095;-68
2024/02/06 01:06:56;;;;;;;8.27;1.30;;;;;;;0.10;100.00;99766.59;5121714;28;20076;-69
2024/02/06 01:09:22;;;;;;;4.28;0.90;;;;;;;0.09;100.00;99761.44;5121554;28;20099;-69
2024/02/06 01:11:47;;;;;;;4.95;1.10;;;;;;;0.09;100.00;99764.09;5121095;28;20031;-70
2024/02/06 01:14:13;;;;;;;4.07;1.00;;;;;;;-0.07;100.00;99741.84;5120720;28;20294;-69
2024/02/06 01:16:39;;;;;;;3.75;1.00;;;;;;;-0.06;100.00;99754.09;5120003;28;20019;-69
2024/02/06 01:19:04;;;;;;;5.97;1.08;;;;;;;-0.12;100.00;99736.19;5121003;28;20050;-69
2024/02/06 01:21:30;;;;;;;3.85;0.90;;;;;;;0.00;100.00;99755.28;5120456;28;20112;-69
2024/02/06 01:23:55;;;;;;;3.15;0.90;;;;;;;0.00;100.00;99763.22;5120869;28;20031;-68
2024/02/06 01:26:21;;;;;;;7.75;1.20;;;;;;;0.01;100.00;99764.88;5120885;28;20110;-69
2024/02/06 01:28:46;;;;;;;5.13;0.90;;;;;;;-0.07;100.00;99749.78;5119631;28;20229;-69
2024/02/06 01:31:13;;;;;;;6.10;1.15;;;;;;;-0.08;100.00;99748.13;5119670;28;20095;-68
2024/02/06 01:33:38;;;;;;;5.10;0.98;;;;;;;-0.01;100.00;99759.72;5119105;28;20088;-68
2024/02/06 01:36:04;;;;;;;5.65;1.00;;;;;;;-0.02;100.00;99752.78;5117614;28;20052;-68
2024/02/06 01:38:30;;;;;;;6.97;0.90;;;;;;;-0.05;100.00;99747.81;5120324;28;20027;-69
2024/02/06 01:40:55;;;;;;;12.10;1.15;;;;;;;-0.20;100.00;99733.50;5101857;28;20112;-75
2024/02/06 01:43:20;;;;;;;6.75;1.27;;;;;;;-0.04;100.00;99752.09;5120182;28;20406;-68
2024/02/06 01:45:46;;;;;;;6.18;1.20;;;;;;;-0.08;100.00;99744.66;5120656;28;20034;-69
2024/02/06 01:48:13;;;;;;;8.00;1.30;;;;;;;-0.06;100.00;99754.09;5118834;28;20057;-69
2024/02/06 01:50:41;;;;;;;8.32;1.02;;;;;;;-0.21;100.00;99725.72;5120773;28;20053;-69
2024/02/06 01:53:07;;;;;;;6.38;1.30;;;;;;;-0.12;100.00;99745.94;5120345;28;20503;-69
2024/02/06 01:55:33;;;;;;;4.57;1.10;;;;;;;-0.24;100.00;99748.84;5120293;28;20084;-70
2024/02/06 01:57:59;;;;;;;5.30;1.20;;;;;;;-0.36;100.00;99739.53;5120054;28;20072;-70
2024/02/06 02:00:25;;;;;;;6.93;1.40;;;;;;;-0.29;100.00;99750.31;5118917;28;20102;-68
2024/02/06 02:02:52;;;;;;;3.70;1.20;;;;;;;-0.36;100.00;99749.28;5118777;28;20033;-68
2024/02/06 02:05:18;;;;;;;3.38;0.77;;;;;;;-0.42;100.00;99752.53;5118882;28;20519;-69
2024/02/06 02:07:44;;;;;;;5.68;1.20;;;;;;;-0.44;100.00;99746.56;5119194;28;20735;-69
2024/02/06 02:10:10;;;;;;;6.10;1.20;;;;;;;-0.39;100.00;99746.94;5118385;28;20545;-69
2024/02/06 02:12:36;;;;;;;6.15;1.13;;;;;;;-0.48;100.00;99736.28;5122247;28;20026;-71
2024/02/06 02:15:02;;;;;;;4.55;1.15;;;;;;;-0.36;100.00;99739.53;5099627;28;20038;-71
2024/02/06 02:17:28;;;;;;;4.65;1.13;;;;;;;-0.53;100.00;99714.81;5121520;28;20114;-68
2024/02/06 02:19:53;;;;;;;5.30;1.00;;;;;;;-0.43;100.00;99743.78;5122912;28;20106;-70
2024/02/06 02:22:19;;;;;;;4.50;1.10;;;;;;;-0.47;100.00;99734.47;5123962;28;20083;-69
2024/02/06 02:24:44;;;;;;;5.53;0.90;;;;;;;-0.64;100.00;99715.03;5123608;28;20057;-69
2024/02/06 02:27:11;;;;;;;4.03;1.10;;;;;;;-0.47;100.00;99739.75;5119517;28;20023;-69
2024/02/06 02:29:38;;;;;;;7.20;1.20;;;;;;;-0.56;100.00;99723.03;5118299;28;20131;-69
2024/02/06 02:32:04;;;;;;;5.65;1.02;;;;;;;-0.45;100.00;99727.25;5101625;28;20185;-69
2024/02/06 02:34:30;;;;;;;8.10;1.38;;;;;;;-0.44;100.00;99725.41;5119836;28;20028;-69
2024/02/06 02:36:55;;;;;;;8.05;1.30;;;;;;;-0.44;100.00;99720.13;5100866;28;20052;-69
2024/02/06 02:39:20;;;;;;;6.53;0.88;;;;;;;-0.49;100.00;99717.97;5101229;28;20039;-69
2024/02/06 02:41:46;;;;;;;5.60;1.02;;;;;;;-0.52;100.00;99710.34;5100747;28;20039;-69
2024/02/06 02:44:11;;;;;;;7.90;1.58;;;;;;;-0.53;100.00;99708.66;5118126;28;20038;-69
2024/02/06 02:46:36;;;;;;;6.88;1.10;;;;;;;-0.53;100.00;99709.53;5117516;28;20039;-70
2024/02/06 02:49:02;;;;;;;7.97;1.60;;;;;;;-0.53;100.00;99701.59;5101110;28;20038;-69
2024/02/06 02:51:27;;;;;;;5.47;1.20;;;;;;;-0.50;100.00;99698.66;5118083;28;20032;-69
2024/02/06 02:53:53;;;;;;;6.97;1.20;;;;;;;-0.52;100.00;99682.09;5119455;28;20023;-69
2024/02/06 02:56:18;;;;;;;5.85;1.20;;;;;;;-0.48;100.00;99683.44;5118827;28;20039;-69
2024/02/06 02:58:44;;;;;;;7.25;1.10;;;;;;;-0.49;100.00;99684.44;5117769;28;20031;-69
2024/02/06 03:01:09;;;;;;;7.03;1.50;;;;;;;-0.49;100.00;99678.31;5118566;28;20035;-68
2024/02/06 03:03:35;;;;;;;7.53;1.40;;;;;;;-0.58;100.00;99666.03;5083634;28;20027;-69
2024/02/06 03:06:00;;;;;;;4.97;1.38;;;;;;;-0.54;100.00;99680.59;5100697;28;20023;-69
2024/02/06 03:08:25;;;;;;;4.72;1.00;;;;;;;-0.53;100.00;99672.53;5118676;28;20083;-69
2024/02/06 03:10:51;;;;;;;5.97;1.35;;;;;;;-0.69;100.00;99637.25;5099884;28;20489;-69
2024/02/06 03:13:16;;;;;;;3.97;1.27;;;;;;;-1.01;100.00;99583.22;5100083;28;20567;-69
2024/02/06 03:15:42;;;;;;;7.80;1.42;;;;;;;-0.57;100.00;99655.31;5116943;28;20088;-69
2024/02/06 03:18:08;;;;;;;6.57;0.80;;;;;;;-0.56;100.00;99657.00;5117365;28;20127;-69
2024/02/06 03:20:33;;;;;;;5.82;1.67;;;;;;;-0.59;100.00;99649.38;5117697;28;20024;-69
2024/02/06 03:22:59;;;;;;;6.68;1.20;;;;;;;-0.56;100.00;99659.63;5117488;28;20046;-68
2024/02/06 03:25:24;;;;;;;5.20;1.30;;;;;;;-0.57;100.00;99650.03;5119139;28;20061;-69
2024/02/06 03:27:50;;;;;;;6.78;1.60;;;;;;;-0.62;100.00;99639.09;5120162;28;20089;-68
2024/02/06 03:30:16;;;;;;;6.38;1.40;;;;;;;-0.58;100.00;99642.25;5121143;28;20030;-69
2024/02/06 03:32:41;;;;;;;5.72;1.45;;;;;;;-0.58;100.00;99648.38;5103794;28;20035;-68
2024/02/06 03:35:07;;;;;;;7.75;1.58;;;;;;;-0.58;100.00;99637.81;5123778;28;20122;-68
2024/02/06 03:37:33;;;;;;;7.75;1.70;;;;;;;-0.58;100.00;99629.88;5124020;28;20059;-68
2024/02/06 03:39:58;;;;;;;5.65;1.48;;;;;;;-0.63;100.00;99624.25;5125595;28;20035;-68
2024/02/06 03:42:24;;;;;;;10.63;1.80;;;;;;;-0.73;100.00;99597.94;5107244;28;20032;-67
2024/02/06 03:44:51;;;;;;;7.00;1.67;;;;;;;-0.61;100.00;99614.34;5125355;28;20059;-67
2024/02/06 03:47:16;;;;;;;6.85;2.47;;;;;;;-0.56;100.00;99614.72;5122146;28;20075;-67
2024/02/06 03:49:42;;;;;;;7.00;1.60;;;;;;;-0.51;100.00;99611.59;5088282;28;20118;-68
2024/02/06 03:52:07;;;;;;;11.10;1.88;;;;;;;-0.51;100.00;99611.59;5123369;28;20034;-66
2024/02/06 03:54:34;;;;;;;8.13;1.20;;;;;;;-0.51;100.00;99615.06;5122573;28;20024;-68
2024/02/06 03:56:59;;;;;;;11.85;1.55;;;;;;;-0.50;100.00;99608.81;5120560;28;20038;-67
2024/02/06 03:59:25;;;;;;;5.95;1.48;;;;;;;-0.50;100.00;99623.81;5119950;28;20024;-69
2024/02/06 04:01:50;;;;;;;5.93;1.30;;;;;;;-0.51;100.00;99619.50;5117729;28;20028;-68
2024/02/06 04:04:15;;;;;;;9.25;1.80;;;;;;;-0.54;100.00;99615.38;5099426;28;20030;-69
2024/02/06 04:06:41;;;;;;;7.30;1.90;;;;;;;-0.62;100.00;99612.69;5119407;28;20180;-68
2024/02/06 04:09:06;;;;;;;10.10;2.10;;;;;;;-0.64;100.00;99617.28;5100648;28;20035;-68
2024/02/06 04:11:32;;;;;;;11.55;2.00;;;;;;;-0.64;100.00;99614.66;5121183;28;20036;-67
2024/02/06 04:13:57;;;;;;;6.68;1.70;;;;;;;-0.65;100.00;99618.28;5123132;28;20081;-67
2024/02/06 04:16:22;;;;;;;8.30;1.88;;;;;;;-0.67;100.00;99611.50;5122480;28;20088;-68
2024/02/06 04:18:48;;;;;;;6.05;1.50;;;;;;;-0.65;100.00;99618.28;5122168;28;20027;-68
2024/02/06 04:21:13;;;;;;;5.15;1.80;;;;;;;-0.69;100.00;99616.94;5121249;28;20038;-68
2024/02/06 04:23:39;;;;;;;5.10;1.65;;;;;;;-0.76;100.00;99608.00;5120662;28;20109;-71
2024/02/06 04:26:05;;;;;;;11.13;2.30;;;;;;;-0.75;100.00;99615.75;5122014;28;20023;-70
2024/02/06 04:28:31;;;;;;;10.25;1.67;;;;;;;-1.02;100.00;99571.84;5122711;28;20039;-70
2024/02/06 04:30:56;;;;;;;6.70;1.70;;;;;;;-0.77;100.00;99606.31;5121452;28;20055;-68
2024/02/06 04:33:22;;;;;;;8.75;2.28;;;;;;;-0.78;100.00;99602.84;5121958;28;20049;-68
2024/02/06 04:35:47;;;;;;;8.75;1.90;;;;;;;-0.78;100.00;99612.59;5122171;28;20051;-70
2024/02/06 04:38:13;;;;;;;5.72;1.75;;;;;;;-0.80;100.00;99611.91;5103446;28;20047;-68
2024/02/06 04:40:39;;;;;;;6.00;1.63;;;;;;;-0.86;100.00;99608.09;5104156;28;20023;-69
2024/02/06 04:43:04;;;;;;;8.77;1.40;;;;;;;-0.92;100.00;99610.53;5103453;28;20038;-68
2024/02/06 04:45:31;;;;;;;10.00;1.60;;;;;;;-1.20;100.00;99581.59;5121914;28;20042;-68
2024/02/06 04:47:56;;;;;;;12.68;1.83;;;;;;;-1.04;100.00;99604.66;5103642;28;20034;-68
2024/02/06 04:50:22;;;;;;;6.82;1.60;;;;;;;-1.08;100.00;99598.03;5119747;28;20499;-69
2024/02/06 04:52:47;;;;;;;9.48;1.60;;;;;;;-1.07;100.00;99595.22;5105683;28;20039;-68
2024/02/06 04:55:12;;;;;;;4.78;1.02;;;;;;;-1.06;100.00;99593.41;5126610;28;20032;-69
2024/02/06 04:57:39;;;;;;;7.47;1.35;;;;;;;-1.19;100.00;99565.63;5129807;28;20032;-69
2024/02/06 05:00:05;;;;;;;7.38;1.50;;;;;;;-1.18;100.00;99577.00;5131954;28;20035;-71
2024/02/06 05:02:36;;;;;;;5.38;1.20;;;;;;;-1.21;100.00;99567.56;5132256;28;20023;-69
2024/02/06 05:05:01;;;;;;;5.72;1.30;;;;;;;-1.08;100.00;99577.72;5132197;28;20055;-69
2024/02/06 05:07:27;;;;;;;4.13;1.10;;;;;;;-1.00;100.00;99576.94;5103040;28;20035;-69
2024/02/06 05:09:52;;;;;;;7.75;1.35;;;;;;;-1.06;100.00;99567.00;5120954;28;20115;-71
2024/02/06 05:12:17;;;;;;;6.40;1.13;;;;;;;-0.98;100.00;99570.53;5120247;28;20109;-68
2024/02/06 05:14:43;;;;;;;7.13;1.17;;;;;;;-1.03;100.00;99571.97;5119944;28;20027;-69
2024/02/06 05:17:08;;;;;;;7.70;1.40;;;;;;;-1.02;100.00;99563.09;5120777;28;20024;-68
2024/02/06 05:19:34;;;;;;;10.07;1.30;;;;;;;-0.99;100.00;99568.06;5121310;27;20027;-68
2024/02/06 05:21:59;;;;;;;9.15;1.52;;;;;;;-0.98;100.00;99556.50;5118663;28;20031;-68
2024/02/06 05:24:26;;;;;;;6.45;1.15;;;;;;;-1.14;100.00;99522.91;5102887;28;20399;-68
2024/02/06 05:26:53;;;;;;;5.07;1.48;;;;;;;-0.96;100.00;99546.59;5119617;28;20375;-68
2024/02/06 05:29:19;;;;;;;5.78;1.25;;;;;;;-1.06;100.00;99514.19;5119259;28;20027;-68
2024/02/06 05:31:44;;;;;;;5.88;1.30;;;;;;;-0.99;100.00;99537.22;5121442;28;20057;-71
2024/02/06 05:34:11;;;;;;;14.13;1.40;;;;;;;-0.99;100.00;99534.56;5102015;28;20030;-68
2024/02/06 05:36:36;;;;;;;5.78;1.17;;;;;;;-1.00;100.00;99529.44;5120314;28;20055;-68
2024/02/06 05:39:02;;;;;;;4.10;1.08;;;;;;;-0.98;100.00;99527.47;5118380;28;20046;-69
2024/02/06 05:41:27;;;;;;;4.88;1.30;;;;;;;-0.97;100.00;99534.41;5119194;28;20566;-68
2024/02/06 05:43:54;;;;;;;5.95;1.45;;;;;;;-1.04;100.00;99507.78;5119589;28;20024;-69
2024/02/06 05:46:20;;;;;;;8.27;1.38;;;;;;;-1.03;100.00;99501.50;5120680;28;20030;-68
2024/02/06 05:48:45;;;;;;;6.63;1.73;;;;;;;-0.92;100.00;99512.81;5119035;28;20024;-68
2024/02/06 05:51:11;;;;;;;8.75;1.60;;;;;;;-0.96;100.00;99497.28;5119201;28;20047;-71
2024/02/06 05:53:37;;;;;;;7.13;1.55;;;;;;;-0.93;100.00;99505.88;5119787;28;20533;-68
2024/02/06 05:56:07;;;;;;;9.00;1.63;;;;;;;-0.95;100.00;99484.91;5118677;28;20024;-68
2024/02/06 05:58:32;;;;;;;9.27;1.70;;;;;;;-0.90;100.00;99489.72;5119105;28;20024;-68
2024/02/06 06:00:57;;;;;;;6.40;1.58;;;;;;;-1.05;100.00;99468.38;5120210;28;20069;-68
2024/02/06 06:03:23;;;;;;;7.85;1.67;;;;;;;-1.01;100.00;99494.28;5102462;28;20028;-68
2024/02/06 06:05:48;;;;;;;4.75;1.27;;;;;;;-1.17;100.00;99475.72;5119438;28;20039;-68
2024/02/06 06:08:13;;;;;;;5.88;1.45;;;;;;;-1.02;100.00;99494.44;5117963;28;20098;-69
2024/02/06 06:10:39;;;;;;;4.30;1.40;;;;;;;-0.91;100.00;99488.06;5101946;28;20028;-71
2024/02/06 06:13:04;;;;;;;9.15;1.50;;;;;;;-0.96;100.00;99489.38;5123141;28;20023;-68
2024/02/06 06:15:30;;;;;;;7.03;1.85;;;;;;;-1.02;100.00;99492.63;5129050;28;20039;-74
2024/02/06 06:17:55;;;;;;;31.00;12.80;;;;;;;-1.00;100.00;99477.44;5131728;28;20023;-70
2024/02/06 06:20:21;;;;;;;34.85;14.93;;;;;;;-1.05;100.00;99468.38;5131528;28;20023;-69
2024/02/06 06:22:47;;;;;;;40.60;16.55;;;;;;;-1.03;100.00;99471.66;5130613;28;20027;-70
2024/02/06 06:25:13;;;;;;;15.50;5.40;;;;;;;-1.04;100.00;99468.19;5127946;28;20039;-71
2024/02/06 06:27:41;;;;;;;13.38;4.15;;;;;;;-0.98;100.00;99472.03;5120154;28;20554;-71
2024/02/06 06:30:09;;;;;;;14.32;3.20;;;;;;;-1.02;100.00;99463.59;5115406;28;20052;-69
2024/02/06 06:32:34;;;;;;;10.82;3.97;;;;;;;-1.04;100.00;99454.16;5118551;28;20097;-70
2024/02/06 06:35:00;;;;;;;53.90;19.88;;;;;;;-1.14;100.00;99440.25;5118121;28;20106;-68
2024/02/06 06:37:25;;;;;;;212.05;78.80;;;;;;;-1.09;100.00;99456.44;5120322;27;20048;-68
2024/02/06 06:39:51;;;;;;;203.32;79.25;;;;;;;-1.03;100.00;99461.09;5120961;28;20043;-68
2024/02/06 06:42:17;;;;;;;50.92;18.38;;;;;;;-0.97;100.00;99456.00;5118973;28;20039;-71
2024/02/06 06:44:43;;;;;;;11.15;3.63;;;;;;;-0.90;100.00;99460.66;5120232;28;20057;-68
2024/02/06 06:47:08;;;;;;;12.43;2.88;;;;;;;-0.89;100.00;99457.88;5119361;28;20073;-69
2024/02/06 06:49:34;;;;;;;8.20;2.00;;;;;;;-0.88;100.00;99459.53;5118294;28;20024;-68
2024/02/06 06:51:59;;;;;;;11.73;1.50;;;;;;;-0.85;100.00;99461.03;5120250;28;20131;-68
2024/02/06 06:54:25;;;;;;;10.55;2.10;;;;;;;-1.19;100.00;99411.72;5121065;28;20028;-69
2024/02/06 06:56:50;;;;;;;14.43;4.82;;;;;;;-1.00;100.00;99443.13;5120009;28;20023;-68
2024/02/06 06:59:15;;;;;;;9.07;1.70;;;;;;;-1.09;100.00;99414.22;5119591;28;20031;-71
2024/02/06 07:01:42;;;;;;;7.88;1.92;;;;;;;-0.86;100.00;99444.38;5119559;28;20110;-68
2024/02/06 07:04:09;;;;;;;8.52;1.58;;;;;;;-0.88;100.00;99443.69;5119074;28;20059;-68
2024/02/06 07:06:35;;;;;;;12.48;1.42;;;;;;;-0.96;100.00;99441.84;5118899;28;20073;-71
2024/02/06 07:09:00;;;;;;;7.63;1.55;;;;;;;-0.92;100.00;99433.59;5116395;28;20050;-70
2024/02/06 07:11:26;;;;;;;8.18;1.55;;;;;;;-0.90;100.00;99435.09;5101850;28;20027;-69
2024/02/06 07:13:51;;;;;;;11.52;1.80;;;;;;;-0.86;100.00;99436.44;5101618;28;20041;-68
2024/02/06 07:16:16;;;;;;;7.03;1.63;;;;;;;-0.89;100.00;99430.63;5101124;28;20131;-71
2024/02/06 07:18:42;;;;;;;9.02;1.63;;;;;;;-0.85;100.00;99434.63;5119007;28;20045;-71
2024/02/06 07:21:07;;;;;;;4.05;1.20;;;;;;;-0.84;100.00;99426.53;5119909;28;20039;-68
2024/02/06 07:23:33;;;;;;;8.65;1.60;;;;;;;-0.83;100.00;99427.34;5118984;28;20039;-68
2024/02/06 07:25:58;;;;;;;7.15;1.42;;;;;;;-0.90;100.00;99426.34;5119792;28;20027;-68
2024/02/06 07:28:24;;;;;;;5.80;1.58;;;;;;;-0.88;100.00;99421.75;5100571;28;20028;-69
2024/02/06 07:30:51;;;;;;;5.80;1.73;;;;;;;-1.11;100.00;99380.06;5125171;28;20042;-72
2024/02/06 07:33:16;;;;;;;7.18;1.83;;;;;;;-0.81;100.00;99398.97;5126094;28;20065;-69
2024/02/06 07:35:41;;;;;;;6.68;1.65;;;;;;;-0.77;100.00;99387.09;5130542;28;20032;-69
2024/02/06 07:38:07;;;;;;;8.43;1.52;;;;;;;-0.76;100.00;99399.34;5131735;28;20054;-72
2024/02/06 07:40:32;;;;;;;11.88;1.63;;;;;;;-0.72;100.00;99396.19;5130000;28;20028;-68
2024/02/06 07:43:00;;;;;;;5.82;1.13;;;;;;;-0.81;100.00;99397.16;5129026;28;20506;-71
2024/02/06 07:45:26;;;;;;;6.63;1.63;;;;;;;-0.77;100.00;99392.38;5118370;28;20028;-71
2024/02/06 07:47:52;;;;;;;13.52;2.35;;;;;;;-0.76;100.00;99388.78;5119146;28;20038;-69
2024/02/06 07:50:17;;;;;;;8.98;1.42;;;;;;;-0.77;100.00;99381.81;5119675;28;20031;-69
2024/02/06 07:52:42;;;;;;;10.25;1.70;;;;;;;-0.74;100.00;99378.84;5102847;28;20028;-68
2024/02/06 07:55:09;;;;;;;16.30;3.30;;;;;;;-0.92;100.00;99344.66;5120300;28;20039;-69
2024/02/06 07:57:34;;;;;;;10.07;1.40;;;;;;;-0.79;100.00;99362.69;5120922;28;20044;-71
2024/02/06 07:59:59;;;;;;;5.78;1.13;;;;;;;-0.75;100.00;99372.75;5119604;28;20066;-69
2024/02/06 08:02:25;;;;;;;10.75;1.70;;;;;;;-0.77;100.00;99358.03;5121005;28;20035;-70
2024/02/06 08:04:52;;;;;;;9.88;1.63;;;;;;;-0.69;100.00;99371.28;5102976;28;20031;-71
2024/02/06 08:07:19;;;;;;;9.77;1.52;;;;;;;-0.67;100.00;99364.00;5121149;28;20517;-70
2024/02/06 08:09:44;;;;;;;9.60;1.88;;;;;;;-0.67;100.00;99356.09;5102257;28;20042;-68
2024/02/06 08:12:10;;;;;;;6.15;1.70;;;;;;;-0.58;100.00;99339.25;5120170;28;20032;-71
2024/02/06 08:14:35;;;;;;;8.20;1.60;;;;;;;-0.62;100.00;99347.69;5119600;28;20028;-71
2024/02/06 08:17:01;;;;;;;6.45;1.50;;;;;;;-0.61;100.00;99355.44;5101864;28;20051;-68
2024/02/06 08:19:26;;;;;;;6.05;1.52;;;;;;;-0.65;100.00;99330.34;5119897;28;20039;-68
2024/02/06 08:21:51;;;;;;;7.00;1.35;;;;;;;-0.68;100.00;99314.81;5120919;28;20043;-68
2024/02/06 08:24:17;;;;;;;9.75;1.60;;;;;;;-0.57;100.00;99325.06;5101625;28;20071;-70
2024/02/06 08:26:42;;;;;;;7.45;1.17;;;;;;;-0.73;100.00;99303.91;5119621;28;20035;-67
2024/02/06 08:29:07;;;;;;;6.40;1.63;;;;;;;-0.57;100.00;99308.38;5118373;28;20113;-69
2024/02/06 08:31:33;;;;;;;9.23;1.88;;;;;;;-0.56;100.00;99313.53;5101103;28;20509;-68
2024/02/06 08:33:59;;;;;;;6.47;1.50;;;;;;;-0.54;100.00;99300.94;5102466;28;20036;-68
2024/02/06 08:36:24;;;;;;;8.63;1.50;;;;;;;-0.54;100.00;99303.59;5117848;28;20115;-69
2024/02/06 08:38:50;;;;;;;9.07;1.67;;;;;;;-0.49;100.00;99317.16;5101197;28;20461;-68
2024/02/06 08:41:15;;;;;;;12.32;1.80;;;;;;;-0.48;100.00;99308.22;5119964;28;20030;-68
2024/02/06 08:43:41;;;;;;;7.03;1.55;;;;;;;-0.43;100.00;99298.97;5119670;28;20058;-69
2024/02/06 08:46:06;;;;;;;13.55;1.67;;;;;;;-0.52;100.00;99285.78;5116134;28;20044;-69
2024/02/06 08:48:31;;;;;;;9.73;1.80;;;;;;;-0.48;100.00;99278.34;5105587;28;20047;-69
2024/02/06 08:50:57;;;;;;;13.10;2.10;;;;;;;-0.44;100.00;99278.81;5125425;28;20043;-67
2024/02/06 08:53:23;;;;;;;9.30;1.80;;;;;;;-0.43;100.00;99264.63;5130878;28;20032;-69
2024/02/06 08:55:48;;;;;;;13.00;2.08;;;;;;;-0.41;100.00;99258.19;5131501;28;20042;-69
2024/02/06 08:58:14;;;;;;;11.75;2.72;;;;;;;-0.37;100.00;99248.09;5133961;28;20042;-69
2024/02/06 09:00:39;;;;;;;16.27;3.05;;;;;;;-0.52;100.00;99210.97;5130059;28;20077;-69
2024/02/06 09:03:05;;;;;;;13.95;2.67;;;;;;;-0.32;100.00;99237.88;5123498;28;20040;-69
2024/02/06 09:05:31;;;;;;;18.25;2.42;;;;;;;-0.18;100.00;99253.03;5123906;27;20024;-69
2024/02/06 09:07:56;;;;;;;13.13;2.42;;;;;;;-0.39;100.00;99216.56;5104265;28;20024;-69
2024/02/06 09:10:23;;;;;;;15.00;2.67;;;;;;;-0.30;100.00;99222.66;5121281;28;20027;-69
2024/02/06 09:12:51;;;;;;;18.92;2.75;;;;;;;-0.14;100.00;99238.47;5106566;28;20104;-69
2024/02/06 09:15:16;;;;;;;16.30;2.80;;;;;;;-0.07;100.00;99238.63;5124612;28;20023;-69
2024/02/06 09:17:41;;;;;;;11.93;2.15;;;;;;;0.03;100.00;99239.25;5124070;28;20034;-69
2024/02/06 09:20:07;;;;;;;23.70;3.03;;;;;;;0.02;100.00;99234.16;5124841;28;20038;-69
2024/02/06 09:22:33;;;;;;;20.10;2.40;;;;;;;0.04;100.00;99232.19;5105919;28;20383;-70
2024/02/06 09:24:58;;;;;;;16.55;2.25;;;;;;;0.15;100.00;99219.41;5121806;28;20074;-69
2024/02/06 09:27:23;;;;;;;12.15;1.98;;;;;;;0.10;100.00;99212.97;5123206;28;20046;-68
2024/02/06 09:29:49;;;;;;;10.18;2.03;;;;;;;0.21;100.00;99208.13;5123454;28;20087;-69
2024/02/06 09:32:14;;;;;;;13.68;2.20;;;;;;;0.22;100.00;99211.59;5105013;28;20035;-69
2024/02/06 09:34:39;;;;;;;11.43;2.58;;;;;;;0.09;100.00;99172.47;5123253;28;20023;-69
2024/02/06 09:37:05;;;;;;;12.20;2.05;;;;;;;0.29;100.00;99193.22;5123148;28;20566;-69
2024/02/06 09:39:31;;;;;;;12.77;2.40;;;;;;;0.14;100.00;99143.69;5122856;28;20032;-69
2024/02/06 09:42:01;;;;;;;9.85;1.80;;;;;;;0.38;100.00;99158.63;5120676;28;20087;-69
2024/02/06 09:44:28;;;;;;;10.15;1.77;;;;;;;0.44;100.00;99159.75;5121977;28;20028;-71
2024/02/06 09:46:56;;;;;;;12.00;1.90;;;;;;;0.45;100.00;99164.03;5121363;28;20042;-69
2024/02/06 09:49:22;;;;;;;6.90;1.60;;;;;;;0.56;100.00;99173.38;5122878;28;20375;-69
2024/02/06 09:51:49;;;;;;;21.50;2.00;;;;;;;0.57;100.00;99167.94;5120415;28;20045;-68
2024/02/06 09:54:16;;;;;;;9.57;1.55;;;;;;;0.56;100.00;99162.81;5121581;28;20031;-70
2024/02/06 09:56:45;;;;;;;8.77;1.63;;;;;;;0.56;100.00;99152.22;5123780;28;20052;-69
2024/02/06 09:59:12;;;;;;;10.40;1.70;;;;;;;0.54;100.00;99152.41;5122297;28;20023;-68
2024/02/06 10:01:41;;;;;;;6.10;1.48;;;;;;;0.59;100.00;99149.22;5122892;28;20035;-69
2024/02/06 10:04:10;;;;;;;12.88;1.52;;;;;;;0.57;100.00;99130.06;5120881;28;20114;-69
2024/02/06 10:06:37;;;;;;;11.23;1.60;;;;;;;0.59;100.00;99149.22;5121918;28;20023;-69
2024/02/06 10:09:04;;;;;;;14.05;1.60;;;;;;;0.68;100.00;99161.41;5126150;28;20023;-69
2024/02/06 10:11:33;;;;;;;10.80;1.35;;;;;;;0.64;100.00;99146.88;5131816;28;20039;-68
2024/02/06 10:13:59;;;;;;;11.05;1.50;;;;;;;0.74;100.00;99155.41;5117753;28;20047;-69
2024/02/06 10:16:25;;;;;;;10.07;1.38;;;;;;;0.71;100.00;99134.59;5115705;28;20069;-69
2024/02/06 10:18:54;;;;;;;11.95;2.45;;;;;;;0.73;100.00;99145.00;5118991;28;20023;-68
2024/02/06 10:21:20;;;;;;;10.85;1.70;;;;;;;0.73;100.00;99152.94;5124389;28;20053;-69
2024/02/06 10:23:46;;;;;;;7.45;1.40;;;;;;;0.74;100.00;99144.00;5121716;28;20088;-69
2024/02/06 10:26:17;;;;;;;8.38;1.70;;;;;;;0.67;100.00;99128.81;5122186;28;20019;-69
2024/02/06 10:28:43;;;;;;;10.57;1.63;;;;;;;0.74;100.00;99115.72;5122371;27;20098;-69
2024/02/06 10:31:10;;;;;;;10.68;1.15;;;;;;;0.74;100.00;99094.53;5103747;28;20122;-69
2024/02/06 10:33:35;;;;;;;14.20;1.52;;;;;;;0.77;100.00;99096.81;5121908;28;20082;-68
2024/02/06 10:36:01;;;;;;;9.32;1.88;;;;;;;0.83;100.00;99080.22;5120402;28;20051;-69
2024/02/06 10:38:27;;;;;;;13.30;3.42;;;;;;;0.74;100.00;99065.41;5101194;28;20055;-69
2024/02/06 10:40:53;;;;;;;6.05;1.30;;;;;;;0.88;100.00;99063.78;5119977;28;20045;-69
2024/02/06 10:43:18;;;;;;;9.38;3.97;;;;;;;0.81;100.00;99055.75;5121063;28;20110;-69
2024/02/06 10:45:44;;;;;;;9.43;1.50;;;;;;;0.82;100.00;99052.09;5118396;28;20105;-69
2024/02/06 10:48:14;;;;;;;13.88;3.72;;;;;;;0.62;100.00;99043.00;5119651;28;20061;-69
2024/02/06 10:50:40;;;;;;;9.93;2.75;;;;;;;0.65;100.00;99064.63;5119850;28;20039;-69
2024/02/06 10:53:06;;;;;;;10.35;3.33;;;;;;;0.63;100.00;99068.47;5103190;28;20023;-69
2024/02/06 10:55:31;;;;;;;7.70;1.98;;;;;;;0.47;100.00;99088.78;5100974;28;20055;-68
2024/02/06 10:57:59;;;;;;;18.50;4.05;;;;;;;0.51;100.00;99080.47;5116346;28;20031;-69
2024/02/06 11:00:27;;;;;;;13.25;4.15;;;;;;;0.53;100.00;99079.31;5120759;28;20043;-69
2024/02/06 11:02:57;;;;;;;13.15;3.58;;;;;;;0.47;100.00;99070.25;5121243;27;20026;-69
2024/02/06 11:05:41;;;;;;;29.75;9.02;;;;;;;0.46;100.00;99055.38;5120707;28;20026;-69
2024/02/06 11:08:08;;;;;;;17.08;5.07;;;;;;;0.37;100.00;99052.97;5119862;28;20103;-69
2024/02/06 11:10:41;;;;;;;11.43;3.75;;;;;;;0.26;100.00;99033.00;5122711;28;20028;-69
2024/02/06 11:13:11;;;;;;;22.95;6.75;;;;;;;0.18;100.00;99023.31;5120883;28;20057;-68
2024/02/06 11:15:42;;;;;;;41.92;13.95;;;;;;;0.18;100.00;99012.75;5121319;28;20392;-69
2024/02/06 11:18:11;;;;;;;72.35;20.38;;;;;;;0.19;100.00;98998.50;5121204;28;20020;-68